Moss Beach, CA (94038)

2:41 PM PST on December 20, 2014 (GMT -0800)
94037 | Change Station
CLOSE
Current Station
Personal Weather Station
Location: Montara, CA
Elevation: 150 ft
Nearby Weather Stations
Active Advisory: High Surf Advisory

Elev 150 ft 37.54 °N, 122.51 °W | Updated 9 seconds ago

Mostly Cloudy
Mostly Cloudy
57.2 °F
Feels Like 57.2 °F
N
0.0
Wind Variable Wind from WSW
Gusts 0.0 mph

Today
High -- | Low -- °F
--% Chance of Precip.
Yesterday
High -- | Low -- °F
Precip. -- in
7:20 AM 4:54 PM
Waning Crescent, 2% visible
Pressure 30.20 in
Visibility 3.0 miles
Clouds Few 4100 ft
Few 4800 ft
Mostly Cloudy 6500 ft
Dew Point 53 °F
Humidity 87%
Rainfall 0.00 in
Snow Depth Not available.
UV 1 out of 12
Pollen 4.00 out of 12
Air Quality Not available.
Flu Activity Not available.
METAR KHAF 202235Z AUTO 18005KT 3SM BR FEW041 FEW048 BKN065 15/13 A3020 RMK AO2

More Conditions Fewer Conditions

Pressure 30.20 in
Visibility 3.0 miles
Clouds Few 4100 ft
Few 4800 ft
Mostly Cloudy 6500 ft
Dew Point 53 °F
Humidity 87%
Rainfall 0.00 in
Snow Depth Not available.
UV 1 out of 12
Pollen 4.00 out of 12
Air Quality Not available.
Flu Activity Not available.
METAR KHAF 202235Z AUTO 18005KT 3SM BR FEW041 FEW048 BKN065 15/13 A3020 RMK AO2

More Conditions Fewer Conditions

10-Day Weather Forecast

Almanac

Astronomy

Dec. 20, 2014 Rise Set
Actual Time
Civil Twilight
Nautical Twilight
Astronomical Twilight
Moon
Length of Visible Light
Length of Day
Tomorrow will be .
, % of the Moon is Illuminated

Today's Extremes

State Highs State Lows

Community

WunderPhotos

Upload Photos

1,779,293 photos uploaded!

WunderBlogs® & News

Nearby

Air Quality

  Air Quality AQ Index Pollutant
Not available.

Snow Depth

Station Depth Elevation

Earthquake Activity

City Distance Mag. Time & Date
Minimum magnitude displayed is 2.5.

Coastal Water Temperatures

Place Temperature

Nearby Weather Stations